createdAt,value
2018-02-20T00:01:20.294Z,54.60
2018-02-20T00:03:48.363Z,64.20
2018-02-20T00:06:16.434Z,52.63
2018-02-20T00:08:44.538Z,59.93
2018-02-20T00:11:12.611Z,62.30
2018-02-20T00:13:42.193Z,63.53
2018-02-20T00:16:10.266Z,67.15
2018-02-20T00:18:38.352Z,57.37
2018-02-20T00:21:06.422Z,62.88
2018-02-20T00:23:34.498Z,58.20
2018-02-20T00:26:02.594Z,65.50
2018-02-20T00:28:30.662Z,69.70
2018-02-20T00:30:58.726Z,63.90
2018-02-20T00:33:26.815Z,75.17
2018-02-20T00:35:54.882Z,72.50
2018-02-20T00:38:23.070Z,74.33
2018-02-20T00:40:51.675Z,67.43
2018-02-20T00:43:19.759Z,73.03
2018-02-20T00:45:47.828Z,72.93
2018-02-20T00:48:15.906Z,74.50
2018-02-20T00:50:44.082Z,78.00
2018-02-20T00:53:12.175Z,81.10
2018-02-20T00:55:41.006Z,81.23
2018-02-20T00:58:09.079Z,75.57
2018-02-20T01:00:37.425Z,73.80
2018-02-20T01:03:06.404Z,80.77
2018-02-20T01:05:34.470Z,82.78
2018-02-20T01:08:02.549Z,79.00
2018-02-20T01:10:30.610Z,79.37
2018-02-20T01:12:58.799Z,92.17
2018-02-20T01:15:26.981Z,88.30
2018-02-20T01:17:55.061Z,89.22
2018-02-20T01:20:23.126Z,87.43
2018-02-20T01:22:52.326Z,93.40
2018-02-20T01:25:20.511Z,79.15
2018-02-20T01:27:48.693Z,81.63
2018-02-20T01:30:16.758Z,84.40
2018-02-20T01:32:44.852Z,81.60
2018-02-20T01:35:13.856Z,92.33
2018-02-20T01:37:41.931Z,89.43
2018-02-20T01:40:11.512Z,81.73
2018-02-20T01:42:39.603Z,76.57
2018-02-20T01:45:07.702Z,86.10
2018-02-20T01:47:35.769Z,62.97
2018-02-20T01:50:03.846Z,81.20
2018-02-20T01:52:31.921Z,80.10
2018-02-20T01:55:00.048Z,85.30
2018-02-20T01:57:28.122Z,77.50
2018-02-20T01:59:56.181Z,84.87
2018-02-20T02:02:25.018Z,83.10
2018-02-20T02:04:53.438Z,83.43
2018-02-20T02:07:23.339Z,83.05
2018-02-20T02:09:52.543Z,77.93
2018-02-20T02:12:20.616Z,84.07
2018-02-20T02:14:48.740Z,78.90
2018-02-20T02:17:17.577Z,75.33
2018-02-20T02:19:45.663Z,71.97
2018-02-20T02:22:13.734Z,79.30
2018-02-20T02:24:41.819Z,65.80
2018-02-20T02:27:09.898Z,74.87
2018-02-20T02:29:38.787Z,82.60
2018-02-20T02:32:06.863Z,78.45
2018-02-20T02:34:35.057Z,67.90
2018-02-20T02:37:03.119Z,75.60
2018-02-20T02:39:31.209Z,76.30
2018-02-20T02:41:59.295Z,66.47
2018-02-20T02:44:28.152Z,70.60
2018-02-20T02:46:56.226Z,81.07
2018-02-20T02:49:24.290Z,74.27
2018-02-20T02:51:52.427Z,64.93
2018-02-20T02:54:21.286Z,64.20
2018-02-20T02:56:49.361Z,74.87
2018-02-20T02:59:17.447Z,57.57
2018-02-20T03:01:45.618Z,58.77
2018-02-20T03:04:13.694Z,66.17
2018-02-20T03:06:41.869Z,65.20
2018-02-20T03:09:09.956Z,72.50
2018-02-20T03:11:38.028Z,66.50
2018-02-20T03:14:06.105Z,66.57
2018-02-20T03:16:34.178Z,63.90
2018-02-20T03:19:02.243Z,64.43
2018-02-20T03:21:30.434Z,77.18
2018-02-20T03:23:58.496Z,63.20
2018-02-20T03:26:26.578Z,62.97
2018-02-20T03:28:54.649Z,71.57
2018-02-20T03:31:23.943Z,58.55
2018-02-20T03:33:52.171Z,69.07
2018-02-20T03:36:21.034Z,81.30
2018-02-20T03:38:49.098Z,65.75
2018-02-20T03:41:17.191Z,58.45
2018-02-20T03:43:45.257Z,61.83
2018-02-20T03:46:14.162Z,54.57
2018-02-20T03:48:42.231Z,74.07
2018-02-20T03:51:10.317Z,62.55
2018-02-20T03:53:38.481Z,49.03
2018-02-20T03:56:06.561Z,54.80
2018-02-20T03:58:34.647Z,59.40
2018-02-20T04:01:02.834Z,58.00
2018-02-20T04:03:30.907Z,61.93
2018-02-20T04:05:58.978Z,57.23
2018-02-20T04:08:27.158Z,53.87
2018-02-20T04:13:36.620Z,62.37
2018-02-20T04:16:04.690Z,51.67
2018-02-20T04:18:32.754Z,59.60
2018-02-20T04:21:00.831Z,63.67
2018-02-20T04:23:28.895Z,55.30
2018-02-20T04:25:56.978Z,54.97
2018-02-20T04:28:25.033Z,54.97
2018-02-20T04:30:53.677Z,56.75
2018-02-20T04:33:21.750Z,54.23
2018-02-20T04:35:49.911Z,52.90
2018-02-20T04:38:18.217Z,51.10
2018-02-20T04:40:46.296Z,46.73
2018-02-20T04:43:14.362Z,51.57
2018-02-20T04:45:42.433Z,49.63
2018-02-20T04:48:11.218Z,51.47
2018-02-20T04:50:39.382Z,54.67
2018-02-20T04:53:07.474Z,60.00
2018-02-20T04:55:35.642Z,53.72
2018-02-20T04:58:03.723Z,63.90
2018-02-20T05:00:31.795Z,62.00
2018-02-20T05:02:59.878Z,60.03
2018-02-20T05:05:28.063Z,60.92
2018-02-20T05:07:56.133Z,61.40
2018-02-20T05:10:24.214Z,58.00
2018-02-20T05:12:52.354Z,60.77
2018-02-20T05:15:20.381Z,67.67
2018-02-20T05:17:48.534Z,77.60
2018-02-20T05:20:16.618Z,65.87
2018-02-20T05:22:44.757Z,79.53
2018-02-20T05:25:12.810Z,70.70
2018-02-20T05:27:41.650Z,70.50
2018-02-20T05:30:09.755Z,71.63
2018-02-20T05:32:37.830Z,72.53
2018-02-20T05:35:05.899Z,79.53
2018-02-20T05:37:33.982Z,80.40
2018-02-20T05:40:02.142Z,90.60
2018-02-20T05:42:30.218Z,67.43
2018-02-20T05:44:58.302Z,70.40
2018-02-20T05:47:26.380Z,65.70
2018-02-20T05:49:54.454Z,73.70
2018-02-20T05:52:22.633Z,83.47
2018-02-20T05:54:50.707Z,78.97
2018-02-20T05:57:18.888Z,79.57
2018-02-20T05:59:46.956Z,75.60
2018-02-20T06:02:15.042Z,69.83
2018-02-20T06:04:43.116Z,70.83
2018-02-20T06:07:11.300Z,67.62
2018-02-20T06:09:39.437Z,92.15
2018-02-20T06:12:07.456Z,79.75
2018-02-20T06:14:35.530Z,79.23
2018-02-20T06:17:03.728Z,82.33
2018-02-20T06:19:31.799Z,89.40
2018-02-20T06:21:59.878Z,75.23
2018-02-20T06:24:29.454Z,96.23
2018-02-20T06:26:57.542Z,106.97
2018-02-20T06:29:25.606Z,84.10
2018-02-20T06:31:54.719Z,93.90
2018-02-20T06:34:22.783Z,83.30
2018-02-20T06:36:52.784Z,98.10
2018-02-20T06:39:20.858Z,108.90
2018-02-20T06:41:48.933Z,94.87
2018-02-20T06:44:17.051Z,87.37
2018-02-20T06:46:46.659Z,79.87
2018-02-20T06:49:14.857Z,92.65
2018-02-20T06:51:42.935Z,82.63
2018-02-20T06:54:11.099Z,86.47
2018-02-20T06:56:39.364Z,70.23
2018-02-20T06:59:07.546Z,88.93
2018-02-20T07:01:35.630Z,81.40
2018-02-20T07:04:03.698Z,68.60
2018-02-20T07:06:31.781Z,76.90
2018-02-20T07:08:59.859Z,81.53
2018-02-20T07:11:27.937Z,76.90
2018-02-20T07:13:56.022Z,88.07
2018-02-20T07:16:25.106Z,77.12
2018-02-20T07:18:53.165Z,82.40
2018-02-20T07:21:21.238Z,73.30
2018-02-20T07:23:49.302Z,75.70
2018-02-20T07:26:17.378Z,65.70
2018-02-20T07:28:45.498Z,64.00
2018-02-20T07:31:13.537Z,67.27
2018-02-20T07:33:41.635Z,70.47
2018-02-20T07:36:09.719Z,69.27
2018-02-20T07:38:37.791Z,76.90
2018-02-20T07:41:05.855Z,68.40
2018-02-20T07:43:33.926Z,64.80
2018-02-20T07:46:02.121Z,71.23
2018-02-20T07:48:30.198Z,73.70
2018-02-20T07:50:58.288Z,76.07
2018-02-20T07:53:26.357Z,67.20
2018-02-20T07:55:55.549Z,70.67
2018-02-20T07:58:23.636Z,63.30
2018-02-20T08:00:52.337Z,74.17
2018-02-20T08:03:20.423Z,62.50
2018-02-20T08:05:48.490Z,73.30
2018-02-20T08:08:16.568Z,72.60
2018-02-20T08:10:44.731Z,68.78
2018-02-20T08:13:12.833Z,63.73
2018-02-20T08:15:41.674Z,69.30
2018-02-20T08:18:10.600Z,69.90
2018-02-20T08:20:38.671Z,64.97
2018-02-20T08:23:06.754Z,62.10
2018-02-20T08:25:34.823Z,71.30
2018-02-20T08:28:03.003Z,65.17
2018-02-20T08:30:31.065Z,60.67
2018-02-20T08:32:59.154Z,54.35
2018-02-20T08:35:27.214Z,55.33
2018-02-20T08:37:56.122Z,46.17
2018-02-20T08:40:24.201Z,60.17
2018-02-20T08:42:52.489Z,54.97
2018-02-20T08:45:20.666Z,56.30
2018-02-20T08:47:48.727Z,47.47
2018-02-20T08:50:17.318Z,51.73
2018-02-20T08:52:45.378Z,52.73
2018-02-20T08:55:13.466Z,54.67
2018-02-20T08:57:41.542Z,51.60
2018-02-20T09:00:10.455Z,59.80
2018-02-20T09:02:38.514Z,50.00
2018-02-20T09:05:06.582Z,65.53
2018-02-20T09:07:34.686Z,56.83
2018-02-20T09:10:02.865Z,51.33
2018-02-20T09:12:30.924Z,132.73
2018-02-20T09:14:59.030Z,56.87
2018-02-20T09:17:27.894Z,48.13
2018-02-20T09:19:56.266Z,45.95
2018-02-20T09:22:24.688Z,42.13
2018-02-20T09:24:52.754Z,53.37
2018-02-20T09:27:20.932Z,39.73
2018-02-20T09:29:49.002Z,39.30
2018-02-20T09:32:17.064Z,48.47
2018-02-20T09:34:45.130Z,46.10
2018-02-20T09:37:13.191Z,90.30
2018-02-20T09:39:41.310Z,59.40
2018-02-20T09:42:09.658Z,55.97
2018-02-20T09:44:37.716Z,53.40
2018-02-20T09:47:06.537Z,60.97
2018-02-20T09:49:34.644Z,69.77
2018-02-20T09:52:02.748Z,54.10
2018-02-20T09:54:31.606Z,48.08
2018-02-20T09:56:59.661Z,69.78
2018-02-20T09:59:27.727Z,59.10
2018-02-20T10:01:57.438Z,59.25
2018-02-20T10:04:26.622Z,68.30
2018-02-20T10:06:56.599Z,71.47
2018-02-20T10:09:24.662Z,70.05
2018-02-20T10:11:52.738Z,70.87
2018-02-20T10:14:20.826Z,71.50
2018-02-20T10:16:49.001Z,79.97
2018-02-20T10:19:17.066Z,80.03
2018-02-20T10:21:45.559Z,71.23
2018-02-20T10:24:13.610Z,64.55
2018-02-20T10:26:42.437Z,68.40
2018-02-20T10:29:10.526Z,78.20
2018-02-20T10:31:38.594Z,67.47
2018-02-20T10:34:06.667Z,66.70
2018-02-20T10:36:34.786Z,73.37
2018-02-20T10:39:02.803Z,59.17
2018-02-20T10:41:30.903Z,59.87
2018-02-20T10:43:58.958Z,52.97
2018-02-20T10:46:27.154Z,68.32
2018-02-20T10:48:55.226Z,68.97
2018-02-20T10:51:23.401Z,57.53
2018-02-20T10:53:52.298Z,54.33
2018-02-20T10:56:20.370Z,52.67
2018-02-20T10:58:48.445Z,53.20
2018-02-20T11:01:16.622Z,42.73
2018-02-20T11:03:44.674Z,56.83
2018-02-20T11:06:12.748Z,45.93
2018-02-20T11:08:40.858Z,43.13
2018-02-20T11:11:08.928Z,44.63
2018-02-20T11:13:36.982Z,45.83
2018-02-20T11:16:05.054Z,44.03
2018-02-20T11:18:33.162Z,46.03
2018-02-20T11:21:01.374Z,43.90
2018-02-20T11:23:30.235Z,45.73
2018-02-20T11:25:58.315Z,44.87
2018-02-20T11:28:28.295Z,43.38
2018-02-20T11:30:57.514Z,41.90
2018-02-20T11:33:25.615Z,41.43
2018-02-20T11:35:53.689Z,38.47
2018-02-20T11:38:21.757Z,38.90
2018-02-20T11:40:49.849Z,37.73
2018-02-20T11:43:18.157Z,34.53
2018-02-20T11:45:46.985Z,30.80
2018-02-20T11:48:15.115Z,32.43
2018-02-20T11:50:43.182Z,37.27
2018-02-20T11:53:11.235Z,37.63
2018-02-20T11:55:39.294Z,44.27
2018-02-20T11:58:07.400Z,36.40
2018-02-20T12:00:35.451Z,42.33
2018-02-20T12:03:03.549Z,38.43
2018-02-20T12:05:31.602Z,36.63
2018-02-20T12:07:59.706Z,30.37
2018-02-20T12:10:27.884Z,34.67
2018-02-20T12:12:55.954Z,32.30
2018-02-20T12:15:24.043Z,33.43
2018-02-20T12:17:52.334Z,31.50
2018-02-20T12:20:20.506Z,30.70
2018-02-20T12:22:48.524Z,28.80
2018-02-20T12:25:16.582Z,33.57
2018-02-20T12:27:45.426Z,35.13
2018-02-20T12:30:13.514Z,38.05
2018-02-20T12:32:41.582Z,33.20
2018-02-20T12:35:09.673Z,26.50
2018-02-20T12:37:37.742Z,31.20
2018-02-20T12:40:05.840Z,35.37
2018-02-20T12:42:34.218Z,40.73
2018-02-20T12:45:02.286Z,34.78
2018-02-20T12:47:30.397Z,30.70
2018-02-20T12:49:59.241Z,34.73
2018-02-20T12:52:28.250Z,41.75
2018-02-20T12:54:56.770Z,31.33
2018-02-20T12:57:25.599Z,41.00
2018-02-20T12:59:53.655Z,44.70
2018-02-20T13:02:21.718Z,48.23
2018-02-20T13:04:50.551Z,50.10
2018-02-20T13:07:18.666Z,43.03
2018-02-20T13:09:46.730Z,39.57
2018-02-20T13:12:14.802Z,36.73
2018-02-20T13:14:42.857Z,47.40
2018-02-20T13:17:10.945Z,47.40
2018-02-20T13:19:39.012Z,44.53
2018-02-20T13:22:07.106Z,43.77
2018-02-20T13:24:35.187Z,44.67
2018-02-20T13:27:03.260Z,44.95
2018-02-20T13:29:31.330Z,44.40
2018-02-20T13:31:59.404Z,38.43
2018-02-20T13:34:28.413Z,49.25
2018-02-20T13:36:56.485Z,47.30
2018-02-20T13:39:24.554Z,40.60
2018-02-20T13:41:52.618Z,47.83
2018-02-20T13:44:20.669Z,39.20
2018-02-20T13:46:48.740Z,43.63
2018-02-20T13:49:17.597Z,41.27
2018-02-20T13:51:45.763Z,31.97
2018-02-20T13:54:13.849Z,41.90
2018-02-20T13:56:41.954Z,36.63
2018-02-20T13:59:09.996Z,32.57
2018-02-20T14:01:38.173Z,39.10
2018-02-20T14:04:06.231Z,42.07
2018-02-20T14:06:34.289Z,42.03
2018-02-20T14:09:02.349Z,40.57
2018-02-20T14:11:31.178Z,42.10
2018-02-20T14:13:59.234Z,31.83
2018-02-20T14:16:27.301Z,31.83
2018-02-20T14:18:55.372Z,41.17
2018-02-20T14:21:23.426Z,33.13
2018-02-20T14:23:52.418Z,32.95
2018-02-20T14:26:20.482Z,39.13
2018-02-20T14:28:48.550Z,34.00
2018-02-20T14:31:17.036Z,36.38
2018-02-20T14:33:45.098Z,50.67
2018-02-20T14:36:13.189Z,39.47
2018-02-20T14:38:41.270Z,46.87
2018-02-20T14:41:09.322Z,38.10
2018-02-20T14:43:37.391Z,40.47
2018-02-20T14:46:05.494Z,45.43
2018-02-20T14:48:33.650Z,45.00
2018-02-20T14:51:01.754Z,44.77
2018-02-20T14:53:29.839Z,42.53
2018-02-20T14:55:59.012Z,40.93
2018-02-20T14:58:27.082Z,35.55
2018-02-20T15:00:55.155Z,40.03
2018-02-20T15:03:23.229Z,32.63
2018-02-20T15:05:52.405Z,38.27
2018-02-20T15:08:20.481Z,37.20
2018-02-20T15:10:49.301Z,36.20
2018-02-20T15:13:17.399Z,36.37
2018-02-20T15:15:45.478Z,35.87
2018-02-20T15:18:13.549Z,42.37
2018-02-20T15:20:41.597Z,44.47
2018-02-20T15:23:09.669Z,34.97
2018-02-20T15:25:37.747Z,45.80
2018-02-20T15:28:05.880Z,42.00
2018-02-20T15:30:33.943Z,38.92
2018-02-20T15:33:02.015Z,40.73
2018-02-20T15:35:30.071Z,50.40
2018-02-20T15:37:58.611Z,44.03
2018-02-20T15:40:27.476Z,63.83
2018-02-20T15:42:55.551Z,50.83
2018-02-20T15:45:23.626Z,47.87
2018-02-20T15:47:52.516Z,49.22
2018-02-20T15:50:20.583Z,58.93
2018-02-20T15:52:48.654Z,46.27
2018-02-20T15:55:16.714Z,50.67
2018-02-20T15:57:44.839Z,52.87
2018-02-20T16:00:12.978Z,54.03
2018-02-20T16:02:41.062Z,52.33
2018-02-20T16:05:09.590Z,53.47
2018-02-20T16:07:37.659Z,52.53
2018-02-20T16:10:05.826Z,60.33
2018-02-20T16:12:34.011Z,60.53
2018-02-20T16:15:02.062Z,58.15
2018-02-20T16:17:30.125Z,58.43
2018-02-20T16:19:58.206Z,62.22
2018-02-20T16:22:26.265Z,62.20
2018-02-20T16:24:54.338Z,60.67
2018-02-20T16:27:22.402Z,58.20
2018-02-20T16:29:50.475Z,59.57
2018-02-20T16:32:19.324Z,67.73
2018-02-20T16:34:47.542Z,53.73
2018-02-20T16:37:16.407Z,61.63
2018-02-20T16:39:45.292Z,61.57
2018-02-20T16:42:13.358Z,62.35
2018-02-20T16:44:41.458Z,63.40
2018-02-20T16:47:09.550Z,63.33
2018-02-20T16:49:38.400Z,52.50
2018-02-20T16:52:06.460Z,51.53
2018-02-20T16:54:34.567Z,50.27
2018-02-20T16:57:02.630Z,43.90
2018-02-20T16:59:30.710Z,37.03
2018-02-20T17:01:59.930Z,34.07
2018-02-20T17:04:28.018Z,35.33
2018-02-20T17:06:56.214Z,40.70
2018-02-20T17:09:25.054Z,47.90
2018-02-20T17:11:53.114Z,38.83
2018-02-20T17:14:21.190Z,44.70
2018-02-20T17:16:49.245Z,44.63
2018-02-20T17:19:18.098Z,45.03
2018-02-20T17:21:46.199Z,46.78
2018-02-20T17:24:14.353Z,46.00
2018-02-20T17:26:42.437Z,50.63
2018-02-20T17:29:10.515Z,63.23
2018-02-20T17:31:38.591Z,47.63
2018-02-20T17:34:06.682Z,55.27
2018-02-20T17:36:34.829Z,62.35
2018-02-20T17:39:02.945Z,48.90
2018-02-20T17:41:30.977Z,56.07
2018-02-20T17:43:59.042Z,65.00
2018-02-20T17:46:27.147Z,62.13
2018-02-20T17:48:55.214Z,54.90
2018-02-20T17:51:23.740Z,68.77
2018-02-20T17:53:53.182Z,65.37
2018-02-20T17:56:21.274Z,70.77
2018-02-20T17:58:49.362Z,58.73
2018-02-20T18:01:17.539Z,70.32
2018-02-20T18:03:45.594Z,71.45
2018-02-20T18:06:13.698Z,63.70
2018-02-20T18:08:41.766Z,82.93
2018-02-20T18:11:09.847Z,71.73
2018-02-20T18:13:37.911Z,73.90
2018-02-20T18:16:05.990Z,68.23
2018-02-20T18:18:34.060Z,80.30
2018-02-20T18:21:02.250Z,72.68
2018-02-20T18:23:30.754Z,70.55
2018-02-20T18:25:58.836Z,80.03
2018-02-20T18:28:26.904Z,69.23
2018-02-20T18:30:55.002Z,80.73
2018-02-20T18:33:24.646Z,78.80
2018-02-20T18:35:52.707Z,76.17
2018-02-20T18:38:20.802Z,70.15
2018-02-20T18:40:48.914Z,68.47
2018-02-20T18:43:16.997Z,66.17
2018-02-20T18:45:45.057Z,74.90
2018-02-20T18:48:13.239Z,73.72
2018-02-20T18:50:41.306Z,82.10
2018-02-20T18:53:09.422Z,74.80
2018-02-20T18:55:37.482Z,80.17
2018-02-20T18:58:05.562Z,89.78
2018-02-20T19:00:33.633Z,76.63
2018-02-20T19:03:01.717Z,70.93
2018-02-20T19:05:30.896Z,79.00
2018-02-20T19:07:59.070Z,79.05
2018-02-20T19:10:27.150Z,73.63
2018-02-20T19:12:55.227Z,83.47
2018-02-20T19:15:23.300Z,84.10
2018-02-20T19:17:53.118Z,81.15
2018-02-20T19:20:21.186Z,88.20
2018-02-20T19:22:49.378Z,84.63
2018-02-20T19:25:17.556Z,81.97
2018-02-20T19:27:45.646Z,78.70
2018-02-20T19:30:13.730Z,81.33
2018-02-20T19:32:42.110Z,85.50
2018-02-20T19:35:10.974Z,83.20
2018-02-20T19:37:39.070Z,68.67
2018-02-20T19:40:07.150Z,74.97
2018-02-20T19:42:35.242Z,105.82
2018-02-20T19:45:04.113Z,94.20
2018-02-20T19:47:32.200Z,88.68
2018-02-20T19:50:01.391Z,85.12
2018-02-20T19:52:29.575Z,78.07
2018-02-20T19:54:58.295Z,74.70
2018-02-20T19:57:27.154Z,83.55
2018-02-20T19:59:55.217Z,72.83
2018-02-20T20:02:23.307Z,73.97
2018-02-20T20:04:52.519Z,84.57
2018-02-20T20:07:21.398Z,70.23
2018-02-20T20:09:49.466Z,87.10
2018-02-20T20:12:17.659Z,73.47
2018-02-20T20:14:45.748Z,65.40
2018-02-20T20:17:13.815Z,69.00
2018-02-20T20:19:41.919Z,80.33
2018-02-20T20:22:10.853Z,77.17
2018-02-20T20:24:38.917Z,81.37
2018-02-20T20:27:07.071Z,88.30
2018-02-20T20:29:35.921Z,77.57
2018-02-20T20:32:03.984Z,75.87
2018-02-20T20:34:32.061Z,89.50
2018-02-20T20:37:00.143Z,74.12
2018-02-20T20:39:28.254Z,65.50
2018-02-20T20:41:56.325Z,77.70
2018-02-20T20:44:24.488Z,73.53
2018-02-20T20:46:52.665Z,93.83
2018-02-20T20:49:20.751Z,93.83
2018-02-20T20:51:48.818Z,90.68
2018-02-20T20:54:16.951Z,87.17
2018-02-20T20:56:45.778Z,81.50
2018-02-20T20:59:13.850Z,81.70
2018-02-20T21:01:41.917Z,73.63
2018-02-20T21:04:10.014Z,69.90
2018-02-20T21:06:38.086Z,79.37
2018-02-20T21:09:06.244Z,80.82
2018-02-20T21:11:34.311Z,86.10
2018-02-20T21:14:02.439Z,72.33
2018-02-20T21:16:30.538Z,76.57
2018-02-20T21:18:58.597Z,73.90
2018-02-20T21:21:26.722Z,92.27
2018-02-20T21:23:55.557Z,88.77
2018-02-20T21:26:24.198Z,75.20
2018-02-20T21:28:52.257Z,94.63
2018-02-20T21:31:21.121Z,79.83
2018-02-20T21:33:49.257Z,64.10
2018-02-20T21:36:17.345Z,89.47
2018-02-20T21:38:45.477Z,79.10
2018-02-20T21:41:14.302Z,75.33
2018-02-20T21:43:42.378Z,81.53
2018-02-20T21:46:10.468Z,79.20
2018-02-20T21:48:38.575Z,79.53
2018-02-20T21:51:06.663Z,79.55
2018-02-20T21:53:34.738Z,72.37
2018-02-20T21:56:02.811Z,83.00
2018-02-20T21:58:30.887Z,71.33
2018-02-20T22:00:58.962Z,75.53
2018-02-20T22:03:27.067Z,71.43
2018-02-20T22:05:55.918Z,68.07
2018-02-20T22:08:23.999Z,63.33
2018-02-20T22:10:52.550Z,80.70
2018-02-20T22:13:20.616Z,89.47
2018-02-20T22:15:48.702Z,85.23
2018-02-20T22:18:16.780Z,75.97
2018-02-20T22:20:45.004Z,66.00
2018-02-20T22:23:13.079Z,71.33
2018-02-20T22:25:42.693Z,85.40
2018-02-20T22:28:10.763Z,93.68
2018-02-20T22:30:38.929Z,81.30
2018-02-20T22:33:07.028Z,76.90
2018-02-20T22:35:35.094Z,66.90
2018-02-20T22:38:03.178Z,86.13
2018-02-20T22:40:31.259Z,82.07
2018-02-20T22:42:59.422Z,79.65
2018-02-20T22:45:27.486Z,77.13
2018-02-20T22:47:55.557Z,74.23
2018-02-20T22:50:23.651Z,90.50
2018-02-20T22:52:52.358Z,71.37
2018-02-20T22:55:20.434Z,80.47
2018-02-20T22:57:48.602Z,68.37
2018-02-20T23:00:17.494Z,74.30
2018-02-20T23:02:45.577Z,75.00
2018-02-20T23:05:15.190Z,79.00
2018-02-20T23:07:43.254Z,71.80
2018-02-20T23:10:11.438Z,81.03
2018-02-20T23:12:39.519Z,77.03
2018-02-20T23:15:09.092Z,81.85
2018-02-20T23:17:37.198Z,78.47
2018-02-20T23:20:05.277Z,100.47
2018-02-20T23:22:34.151Z,98.65
2018-02-20T23:25:04.185Z,94.33
2018-02-20T23:27:33.377Z,88.40
2018-02-20T23:30:01.450Z,94.13
2018-02-20T23:32:29.542Z,77.43
2018-02-20T23:34:57.609Z,84.47
2018-02-20T23:37:25.804Z,83.33
2018-02-20T23:39:53.867Z,101.97
2018-02-20T23:42:21.942Z,102.90
2018-02-20T23:44:50.014Z,93.70
2018-02-20T23:47:18.098Z,84.73
2018-02-20T23:49:46.162Z,88.43
2018-02-20T23:52:14.242Z,79.50
2018-02-20T23:54:42.334Z,89.97
2018-02-20T23:57:10.419Z,89.60
2018-02-20T23:59:38.486Z,84.80
